Time;durP1;ratioP1;P1;durP2;ratioP2;P2;SDS_P1;SDS_P2;PMS_P1;PMS_P2;Temp;Humidity;BMP_temperature;BMP_pressure;BME280_temperature;BME280_humidity;BME280_pressure;Samples;Min_cycle;Max_cycle;Signal;HPM_P1;HPM_P2
2021/01/07 00:00:07;;;;;;;14.10;6.55;;;;;;;11.37;70.94;101702.61;1751512;82;21133;-46
2021/01/07 00:02:37;;;;;;;17.45;6.90;;;;;;;11.37;71.11;101698.70;1735309;82;21192;-46
2021/01/07 00:05:07;;;;;;;13.35;6.67;;;;;;;11.38;71.16;101699.58;1737595;82;21148;-46
2021/01/07 00:07:35;;;;;;;18.27;7.47;;;;;;;11.40;71.08;101692.61;1737511;82;21160;-46
2021/01/07 00:10:05;;;;;;;20.85;7.12;;;;;;;11.40;71.10;101685.66;1736549;82;21152;-46
2021/01/07 00:12:33;;;;;;;16.50;6.65;;;;;;;11.43;71.01;101689.55;1742260;82;21117;-46
2021/01/07 00:15:01;;;;;;;16.27;7.03;;;;;;;11.44;71.06;101697.78;1732136;82;21298;-46
2021/01/07 00:17:30;;;;;;;17.25;8.50;;;;;;;11.48;71.04;101692.55;1738559;82;21141;-46
2021/01/07 00:19:58;;;;;;;19.02;8.00;;;;;;;11.48;71.03;101686.88;1734111;82;21164;-46
2021/01/07 00:22:27;;;;;;;16.25;6.87;;;;;;;11.50;70.88;101690.79;1740718;82;21294;-46
2021/01/07 00:24:55;;;;;;;17.07;7.40;;;;;;;11.50;70.88;101689.48;1738857;82;21275;-45
2021/01/07 00:27:23;;;;;;;18.45;8.15;;;;;;;11.48;71.02;101686.44;1735389;82;21152;-46
2021/01/07 00:29:51;;;;;;;16.97;9.05;;;;;;;11.50;71.05;101690.33;1736804;82;21286;-46
2021/01/07 00:32:19;;;;;;;17.05;7.50;;;;;;;11.51;71.00;101689.45;1738402;82;21152;-46
2021/01/07 00:34:48;;;;;;;12.55;7.17;;;;;;;11.53;70.80;101688.13;1749031;82;21112;-46
2021/01/07 00:37:16;;;;;;;13.90;7.40;;;;;;;11.54;70.75;101689.88;1738738;82;21144;-46
2021/01/07 00:39:44;;;;;;;16.45;7.40;;;;;;;11.55;70.72;101692.89;1738876;82;21616;-46
2021/01/07 00:42:14;;;;;;;19.10;7.92;;;;;;;11.55;70.75;101695.06;1737833;82;21563;-46
2021/01/07 00:44:42;;;;;;;21.12;7.87;;;;;;;11.57;70.70;101700.25;1717341;83;21116;-46
2021/01/07 00:47:10;;;;;;;14.63;7.85;;;;;;;11.56;70.68;101702.45;1748825;81;21156;-46
2021/01/07 00:49:39;;;;;;;15.38;7.78;;;;;;;11.53;70.94;101703.77;1740506;81;21172;-46
2021/01/07 00:52:09;;;;;;;15.63;6.70;;;;;;;11.53;71.03;101701.16;1744902;81;21203;-46
2021/01/07 00:54:39;;;;;;;15.77;6.97;;;;;;;11.54;71.17;101697.70;1740031;81;21152;-46
2021/01/07 00:57:09;;;;;;;15.18;6.12;;;;;;;11.51;71.19;101696.41;1750647;81;21616;-46
2021/01/07 00:59:38;;;;;;;19.35;7.85;;;;;;;11.49;71.37;101695.13;1736014;81;21738;-46
2021/01/07 01:02:06;;;;;;;13.98;6.67;;;;;;;11.48;71.57;101690.78;1744894;81;21192;-46
2021/01/07 01:04:34;;;;;;;13.28;6.25;;;;;;;11.48;71.63;101685.14;1749846;81;21129;-45
2021/01/07 01:07:02;;;;;;;18.35;6.83;;;;;;;11.48;71.84;101671.70;1740101;81;21152;-46
2021/01/07 01:09:30;;;;;;;14.73;7.10;;;;;;;11.50;71.90;101666.03;1752360;81;21160;-46
2021/01/07 01:11:58;;;;;;;17.65;7.30;;;;;;;11.50;71.96;101647.78;1741311;81;21116;-46
2021/01/07 01:14:27;;;;;;;14.63;7.20;;;;;;;11.48;72.06;101635.62;1748032;81;21274;-46
2021/01/07 01:16:56;;;;;;;16.87;6.75;;;;;;;11.51;72.21;101642.98;1746126;81;21597;-45
2021/01/07 01:19:24;;;;;;;14.18;6.42;;;;;;;11.52;72.29;101631.69;1743307;81;21301;-46
2021/01/07 01:21:52;;;;;;;20.52;6.85;;;;;;;11.51;72.27;101612.58;1744931;81;21609;-46
2021/01/07 01:24:20;;;;;;;17.75;6.72;;;;;;;11.53;72.27;101600.81;1746553;81;21180;-46
2021/01/07 01:26:58;;;;;;;14.93;6.15;;;;;;;11.56;72.23;101594.28;1746374;81;21148;-46
2021/01/07 01:29:26;;;;;;;14.68;6.90;;;;;;;11.58;72.23;101586.00;1745042;81;21175;-46
2021/01/07 01:31:55;;;;;;;20.25;7.53;;;;;;;11.62;72.12;101581.16;1742261;81;21302;-45
2021/01/07 01:34:23;;;;;;;15.43;5.83;;;;;;;11.64;72.02;101584.62;1759386;81;21125;-46
2021/01/07 01:36:52;;;;;;;13.70;6.12;;;;;;;11.66;71.93;101588.06;1747655;81;21313;-46
2021/01/07 01:39:21;;;;;;;16.65;5.85;;;;;;;11.65;71.86;101596.31;1748226;81;21152;-46
2021/01/07 01:41:49;;;;;;;20.45;7.50;;;;;;;11.62;71.99;101589.86;1743109;81;21156;-46
2021/01/07 01:44:17;;;;;;;15.23;6.30;;;;;;;11.61;72.09;101587.24;1747977;81;21287;-46
2021/01/07 01:46:46;;;;;;;20.77;7.03;;;;;;;11.59;72.19;101594.22;1732197;82;21148;-46
2021/01/07 01:49:15;;;;;;;16.55;6.72;;;;;;;11.59;72.31;101596.83;1744066;82;21140;-46
2021/01/07 01:51:44;;;;;;;15.00;6.08;;;;;;;11.58;72.44;101588.61;1726436;82;21133;-46
2021/01/07 01:54:12;;;;;;;13.13;6.08;;;;;;;11.59;72.50;101584.67;1738008;82;21207;-46
2021/01/07 01:56:40;;;;;;;13.62;6.42;;;;;;;11.59;72.48;101583.80;1736991;82;21161;-46
2021/01/07 01:59:08;;;;;;;19.52;7.08;;;;;;;11.60;72.41;101580.32;1734580;82;21183;-46
2021/01/07 02:01:36;;;;;;;14.65;6.10;;;;;;;11.61;72.49;101574.21;1732403;82;21169;-46
2021/01/07 02:04:06;;;;;;;19.55;7.05;;;;;;;11.62;72.52;101575.95;1744458;82;21141;-46
2021/01/07 02:06:34;;;;;;;19.98;7.37;;;;;;;11.66;72.43;101573.73;1735213;82;21616;-46
2021/01/07 02:09:06;;;;;;;19.48;6.15;;;;;;;11.67;72.28;101566.34;1739784;82;21176;-46
2021/01/07 02:11:35;;;;;;;19.45;6.37;;;;;;;11.66;72.11;101550.27;1739024;82;21117;-46
2021/01/07 02:14:04;;;;;;;17.48;6.60;;;;;;;11.65;72.13;101544.61;1735751;82;21171;-46
2021/01/07 02:16:33;;;;;;;18.23;6.85;;;;;;;11.64;72.15;101553.33;1742719;82;21295;-46
2021/01/07 02:19:02;;;;;;;17.23;7.12;;;;;;;11.64;72.20;101545.52;1735079;82;21136;-46
2021/01/07 02:21:38;;;;;;;16.60;5.75;;;;;;;11.63;72.18;101542.47;1739488;82;21180;-46
2021/01/07 02:24:07;;;;;;;19.25;6.40;;;;;;;11.64;72.13;101542.91;1733911;82;21306;-46
2021/01/07 02:26:36;;;;;;;17.50;6.83;;;;;;;11.64;72.08;101537.69;1738148;82;21176;-46
2021/01/07 02:29:04;;;;;;;15.63;6.30;;;;;;;11.62;72.18;101536.85;1726777;82;21267;-46
2021/01/07 02:31:32;;;;;;;16.57;5.83;;;;;;;11.62;72.28;101539.45;1737984;82;21282;-46
2021/01/07 02:34:01;;;;;;;14.25;5.53;;;;;;;11.60;72.34;101536.88;1752554;82;21141;-46
2021/01/07 02:36:29;;;;;;;18.55;6.70;;;;;;;11.59;72.41;101533.84;1741592;82;21283;-46
2021/01/07 02:38:57;;;;;;;13.28;5.95;;;;;;;11.58;72.52;101541.22;1738953;82;21609;-46
2021/01/07 02:41:26;;;;;;;17.07;7.25;;;;;;;11.56;72.73;101535.16;1732414;82;21137;-46
2021/01/07 02:43:54;;;;;;;14.80;6.10;;;;;;;11.56;72.96;101523.91;1740469;81;21121;-46
2021/01/07 02:46:22;;;;;;;18.20;6.40;;;;;;;11.57;73.03;101515.19;1721326;82;21299;-46
2021/01/07 02:48:50;;;;;;;14.80;6.53;;;;;;;11.59;73.04;101510.81;1725772;82;21145;-46
2021/01/07 02:51:18;;;;;;;17.20;6.80;;;;;;;11.61;73.05;101506.44;1722415;82;21323;-46
2021/01/07 02:53:46;;;;;;;17.00;6.50;;;;;;;11.63;73.13;101511.19;1727839;82;21352;-46
2021/01/07 02:56:14;;;;;;;17.20;6.62;;;;;;;11.65;73.15;101498.56;1721158;82;21137;-46
2021/01/07 02:58:42;;;;;;;16.60;6.78;;;;;;;11.65;73.06;101492.48;1723746;82;21306;-46
2021/01/07 03:01:12;;;;;;;19.32;6.85;;;;;;;11.66;72.94;101467.75;1718100;82;21133;-46
2021/01/07 03:03:40;;;;;;;16.60;6.62;;;;;;;11.66;73.01;101475.97;1725366;82;21283;-46
2021/01/07 03:06:10;;;;;;;18.57;6.90;;;;;;;11.68;72.97;101476.84;1725674;82;21625;-46
2021/01/07 03:08:39;;;;;;;20.88;7.70;;;;;;;11.68;72.90;101476.41;1720971;82;21144;-46
2021/01/07 03:11:07;;;;;;;22.00;7.85;;;;;;;11.68;72.79;101477.70;1722118;82;21510;-46
2021/01/07 03:13:35;;;;;;;19.20;6.83;;;;;;;11.68;72.75;101472.92;1722529;82;21165;-46
2021/01/07 03:16:05;;;;;;;12.68;6.10;;;;;;;11.67;72.78;101455.11;1724946;82;21205;-46
2021/01/07 03:18:33;;;;;;;18.37;7.47;;;;;;;11.68;72.91;101455.98;1724740;82;21192;-46
2021/01/07 03:21:01;;;;;;;14.25;6.42;;;;;;;11.71;72.84;101465.05;1724116;82;21189;-46
2021/01/07 03:23:29;;;;;;;20.17;7.03;;;;;;;11.73;72.78;101465.88;1726712;82;21173;-46
2021/01/07 03:25:58;;;;;;;14.78;7.40;;;;;;;11.75;72.63;101468.89;1721594;82;21161;-46
2021/01/07 03:28:26;;;;;;;20.12;7.42;;;;;;;11.77;72.55;101469.73;1730258;82;21138;-46
2021/01/07 03:30:55;;;;;;;18.75;8.50;;;;;;;11.79;72.47;101475.78;1718259;82;21554;-46
2021/01/07 03:33:23;;;;;;;19.07;7.97;;;;;;;11.78;72.41;101462.77;1730824;82;21165;-46
2021/01/07 03:35:51;;;;;;;17.23;8.20;;;;;;;11.78;72.32;101460.17;1730873;82;21331;-46
2021/01/07 03:38:20;;;;;;;19.30;7.72;;;;;;;11.78;72.38;101462.77;1722299;82;21145;-46
2021/01/07 03:40:48;;;;;;;24.25;8.78;;;;;;;11.78;72.37;101462.77;1724347;82;21181;-46
2021/01/07 03:43:17;;;;;;;18.98;9.00;;;;;;;11.75;72.43;101470.63;1726525;82;21561;-46
2021/01/07 03:45:46;;;;;;;24.90;9.23;;;;;;;11.71;72.57;101472.43;1720953;82;21188;-46
2021/01/07 03:48:15;;;;;;;18.87;9.00;;;;;;;11.70;72.67;101462.91;1727995;82;21156;-46
2021/01/07 03:50:43;;;;;;;16.82;8.98;;;;;;;11.68;72.76;101467.72;1723546;82;21538;-46
2021/01/07 03:53:11;;;;;;;24.82;9.23;;;;;;;11.67;72.82;101469.89;1724560;82;21322;-46
2021/01/07 03:55:40;;;;;;;21.77;8.88;;;;;;;11.68;72.88;101479.45;1724043;82;21291;-46
2021/01/07 03:58:07;;;;;;;18.75;8.50;;;;;;;11.66;72.92;101469.05;1723689;82;21546;-46
2021/01/07 04:00:36;;;;;;;25.50;8.78;;;;;;;11.67;72.90;101468.15;1731234;82;21196;-46
2021/01/07 04:03:04;;;;;;;17.80;7.83;;;;;;;11.68;72.91;101464.67;1721215;82;21165;-46
2021/01/07 04:05:32;;;;;;;19.95;8.63;;;;;;;11.70;72.94;101461.59;1725704;82;21169;-46
2021/01/07 04:08:01;;;;;;;17.75;8.45;;;;;;;11.72;72.89;101455.92;1724318;82;21168;-46
2021/01/07 04:10:29;;;;;;;21.80;9.05;;;;;;;11.74;72.84;101449.38;1725214;82;21589;-46
2021/01/07 04:12:57;;;;;;;20.97;8.30;;;;;;;11.75;72.79;101444.56;1723078;82;21161;-47
2021/01/07 04:15:25;;;;;;;19.30;8.25;;;;;;;11.75;72.73;101441.95;1726885;82;21117;-46
2021/01/07 04:17:53;;;;;;;16.02;8.73;;;;;;;11.76;72.73;101443.69;1720539;82;21145;-46
2021/01/07 04:20:23;;;;;;;16.67;9.28;;;;;;;11.75;72.78;101445.42;1730444;82;21185;-46
2021/01/07 04:22:51;;;;;;;26.42;8.63;;;;;;;11.76;72.74;101436.73;1718017;82;21169;-46
2021/01/07 04:25:19;;;;;;;16.57;7.28;;;;;;;11.78;72.69;101435.40;1728974;82;21188;-46
2021/01/07 04:27:47;;;;;;;20.45;7.47;;;;;;;11.79;72.67;101438.41;1722026;82;21291;-46
2021/01/07 04:30:17;;;;;;;17.07;7.35;;;;;;;11.79;72.76;101436.67;1728649;82;21268;-46
2021/01/07 04:32:45;;;;;;;18.80;8.28;;;;;;;11.81;72.63;101436.67;1723645;82;21594;-46
2021/01/07 04:35:14;;;;;;;18.40;7.62;;;;;;;11.81;72.71;101432.29;1718188;82;21145;-46
2021/01/07 04:37:42;;;;;;;21.65;8.28;;;;;;;11.82;72.54;101435.77;1721115;82;21581;-46
2021/01/07 04:40:12;;;;;;;19.70;8.20;;;;;;;11.83;72.55;101435.73;1726853;82;21121;-46
2021/01/07 04:42:40;;;;;;;16.40;8.05;;;;;;;11.84;72.56;101440.08;1724302;82;21214;-46
2021/01/07 04:45:10;;;;;;;19.12;8.65;;;;;;;11.85;72.56;101443.56;1731759;82;21196;-46
2021/01/07 04:47:38;;;;;;;21.40;7.60;;;;;;;11.85;72.52;101430.05;1738137;82;21140;-46
2021/01/07 04:50:08;;;;;;;23.22;8.28;;;;;;;11.88;72.38;101425.23;1740575;82;21152;-46
2021/01/07 04:52:37;;;;;;;25.05;8.83;;;;;;;11.87;72.32;101425.67;1736686;82;21156;-46
2021/01/07 04:55:07;;;;;;;21.23;7.70;;;;;;;11.87;72.33;101428.75;1742786;82;21152;-46
2021/01/07 04:57:35;;;;;;;21.73;7.62;;;;;;;11.87;72.29;101423.53;1732286;82;21601;-46
2021/01/07 05:00:09;;;;;;;18.37;8.30;;;;;;;11.87;72.19;101423.06;1751396;82;21156;-46
2021/01/07 05:02:37;;;;;;;19.77;7.62;;;;;;;11.88;72.10;101427.41;1746250;82;21586;-46
2021/01/07 05:05:07;;;;;;;15.08;7.35;;;;;;;11.88;72.05;101417.41;1738673;82;21148;-46
2021/01/07 05:07:39;;;;;;;24.10;7.75;;;;;;;11.86;72.20;101413.97;1737280;82;21153;-46
2021/01/07 05:10:09;;;;;;;;;;;;;;;11.88;72.15;101415.67;1738312;82;21577;-46
2021/01/07 05:12:38;;;;;;;18.27;6.87;;;;;;;11.88;71.98;101406.98;1740428;82;20142;-47
2021/01/07 05:15:08;;;;;;;18.75;8.20;;;;;;;11.85;71.97;101397.45;1733017;82;21136;-46
2021/01/07 05:17:36;;;;;;;21.57;7.85;;;;;;;11.83;72.04;101394.02;1744848;82;21192;-46
2021/01/07 05:20:13;;;;;;;18.02;7.25;;;;;;;11.83;72.08;101387.96;1732864;82;21153;-46
2021/01/07 05:22:42;;;;;;;19.67;7.60;;;;;;;11.84;72.02;101388.36;1743918;82;21157;-46
2021/01/07 05:25:12;;;;;;;16.30;7.50;;;;;;;11.84;71.88;101392.27;1736230;82;21588;-47
2021/01/07 05:27:43;;;;;;;22.13;8.08;;;;;;;11.84;71.78;101379.23;1739494;82;21322;-46
2021/01/07 05:30:13;;;;;;;21.40;8.25;;;;;;;11.83;71.88;101377.53;1680615;84;21649;-46
2021/01/07 05:32:43;;;;;;;14.93;7.22;;;;;;;11.85;71.93;101375.76;1666974;85;21181;-46
2021/01/07 05:35:20;;;;;;;22.75;8.48;;;;;;;11.87;71.77;101377.89;1676614;85;21186;-46
2021/01/07 05:37:48;;;;;;;18.95;6.92;;;;;;;11.89;71.67;101380.03;1665299;85;21325;-47
2021/01/07 05:40:17;;;;;;;20.75;7.28;;;;;;;11.88;71.58;101379.16;1658075;85;21210;-46
2021/01/07 05:42:46;;;;;;;17.90;6.40;;;;;;;11.88;71.60;101373.08;1667091;85;21364;-46
2021/01/07 05:45:17;;;;;;;22.02;7.72;;;;;;;11.88;71.59;101369.17;1663663;85;21233;-46
2021/01/07 05:47:49;;;;;;;18.25;7.05;;;;;;;11.88;71.64;101367.87;1627810;87;21726;-46
2021/01/07 05:50:21;;;;;;;25.30;7.28;;;;;;;11.91;71.51;101369.13;1627666;87;21183;-47
2021/01/07 05:52:50;;;;;;;16.97;7.20;;;;;;;11.91;71.34;101363.91;1627344;87;21187;-46
2021/01/07 05:55:19;;;;;;;19.87;6.72;;;;;;;11.92;71.23;101366.92;1627311;87;21206;-46
2021/01/07 05:57:47;;;;;;;21.20;7.35;;;;;;;11.93;71.24;101363.44;1624943;87;21388;-46
2021/01/07 06:00:17;;;;;;;23.83;8.65;;;;;;;11.96;71.20;101360.77;1625162;87;21192;-46
2021/01/07 06:02:45;;;;;;;25.35;7.30;;;;;;;11.98;71.01;101358.98;1625897;87;21198;-46
2021/01/07 06:05:15;;;;;;;19.87;6.85;;;;;;;11.99;70.82;101358.12;1627510;87;21203;-46
2021/01/07 06:07:43;;;;;;;15.38;6.37;;;;;;;12.00;70.83;101359.82;1623680;87;21214;-47
2021/01/07 06:10:15;;;;;;;21.23;6.75;;;;;;;12.00;70.80;101358.52;1625390;87;21647;-46
2021/01/07 06:12:42;;;;;;;22.50;7.03;;;;;;;12.00;70.74;101355.91;1625080;87;21219;-46
2021/01/07 06:15:13;;;;;;;16.42;7.20;;;;;;;12.01;70.60;101351.13;1625008;87;21203;-46
2021/01/07 06:17:42;;;;;;;21.75;8.30;;;;;;;12.01;70.42;101354.56;1626039;87;21236;-46
2021/01/07 06:20:21;;;;;;;21.30;7.15;;;;;;;12.01;70.42;101357.64;1611576;87;21224;-47
2021/01/07 06:22:51;;;;;;;21.73;7.50;;;;;;;11.98;70.55;101355.08;1622473;87;21202;-46
2021/01/07 06:25:22;;;;;;;21.82;7.12;;;;;;;11.96;70.70;101343.81;1627480;87;21337;-46
2021/01/07 06:27:56;;;;;;;18.50;8.20;;;;;;;12.03;70.71;101341.52;1756329;79;28320;-47
2021/01/07 06:30:32;;;;;;;13.90;6.22;;;;;;;12.04;70.53;101348.44;1735109;82;21153;-47
2021/01/07 06:33:03;;;;;;;21.77;7.00;;;;;;;12.09;70.39;101344.02;1740704;82;21601;-47
2021/01/07 06:35:41;;;;;;;20.17;6.83;;;;;;;12.10;70.50;101335.28;1727749;82;21190;-47
2021/01/07 06:38:14;;;;;;;17.62;7.45;;;;;;;12.09;70.47;101341.41;1711253;83;21168;-47
2021/01/07 06:40:43;;;;;;;19.50;7.95;;;;;;;12.08;70.61;101337.06;1711395;83;21132;-47
2021/01/07 06:43:18;;;;;;;20.57;6.60;;;;;;;12.08;70.60;101337.06;1688073;83;21136;-47
2021/01/07 06:45:51;;;;;;;21.70;7.87;;;;;;;12.04;70.69;101331.48;1710264;83;21212;-47
2021/01/07 06:48:28;;;;;;;24.27;8.45;;;;;;;12.00;70.92;101323.30;1697107;83;21199;-47
2021/01/07 06:50:56;;;;;;;25.82;8.05;;;;;;;12.00;71.11;101324.61;1696599;83;21159;-47
2021/01/07 06:53:25;;;;;;;23.67;8.20;;;;;;;11.98;71.22;101319.87;1708672;83;21159;-47
2021/01/07 06:56:17;;;;;;;24.47;7.65;;;;;;;11.95;71.35;101323.38;1709577;83;21135;-47
2021/01/07 06:58:47;;;;;;;20.45;8.05;;;;;;;11.92;71.64;101325.20;1707478;83;21167;-47
2021/01/07 07:01:17;;;;;;;22.07;8.03;;;;;;;11.91;71.84;101315.67;1708350;83;21168;-47
2021/01/07 07:03:50;;;;;;;18.50;7.25;;;;;;;11.92;71.94;101309.55;1710631;83;21612;-47
2021/01/07 07:06:21;;;;;;;23.12;7.47;;;;;;;11.94;71.98;101306.47;1706596;83;21166;-47
2021/01/07 07:08:49;;;;;;;23.47;7.90;;;;;;;11.95;71.93;101307.73;1713738;83;21234;-47
2021/01/07 07:11:33;;;;;;;23.27;8.45;;;;;;;11.96;71.93;101309.91;1712156;83;21727;-47
2021/01/07 07:14:07;;;;;;;20.95;7.75;;;;;;;11.96;72.05;101299.48;1712528;83;21313;-47
2021/01/07 07:16:36;;;;;;;18.35;7.10;;;;;;;11.96;72.05;101303.39;1706342;83;21223;-47
2021/01/07 07:19:06;;;;;;;22.87;7.75;;;;;;;11.95;72.04;101293.39;1711227;83;21223;-47
2021/01/07 07:21:35;;;;;;;24.18;7.03;;;;;;;11.96;72.00;101289.05;1712456;83;21179;-47
2021/01/07 07:24:11;;;;;;;17.25;7.08;;;;;;;11.96;71.98;101282.52;1708015;83;21325;-47
2021/01/07 07:26:41;;;;;;;19.25;7.20;;;;;;;11.97;72.08;101286.87;1706885;83;21164;-47
2021/01/07 07:29:13;;;;;;;22.00;7.30;;;;;;;11.97;72.11;101285.09;1710521;83;21192;-47
2021/01/07 07:31:47;;;;;;;18.55;7.55;;;;;;;12.02;72.12;101291.53;1808832;79;22999;-47
2021/01/07 07:34:16;;;;;;;20.62;7.35;;;;;;;11.99;72.12;101280.70;1762984;80;21597;-47
2021/01/07 07:36:44;;;;;;;23.92;8.00;;;;;;;12.01;72.08;101280.70;1779501;80;21572;-47
2021/01/07 07:39:13;;;;;;;21.52;7.62;;;;;;;12.02;72.17;101281.09;1780041;80;21152;-47
2021/01/07 07:41:44;;;;;;;21.00;7.97;;;;;;;12.04;72.20;101281.50;1780125;80;21743;-47
2021/01/07 07:44:15;;;;;;;23.92;8.40;;;;;;;12.08;72.04;101278.38;1703366;84;21182;-47
2021/01/07 07:46:43;;;;;;;21.73;8.85;;;;;;;12.08;71.91;101270.11;1701048;84;21182;-47
2021/01/07 07:49:12;;;;;;;26.02;8.28;;;;;;;12.11;71.95;101267.45;1700537;84;21225;-47
2021/01/07 07:51:41;;;;;;;26.68;9.08;;;;;;;12.13;71.85;101266.11;1700701;84;21387;-47
2021/01/07 07:54:11;;;;;;;24.15;8.48;;;;;;;12.16;71.86;101260.81;1700611;83;21328;-47
2021/01/07 07:56:39;;;;;;;23.67;7.80;;;;;;;12.19;71.64;101264.69;1700439;84;21304;-47
2021/01/07 07:59:10;;;;;;;23.30;7.45;;;;;;;12.19;71.45;101263.38;1697383;84;21206;-47
2021/01/07 08:01:43;;;;;;;18.70;8.18;;;;;;;12.18;71.54;101257.73;1703067;84;21182;-47
2021/01/07 08:04:17;;;;;;;27.62;9.20;;;;;;;12.18;71.50;101255.13;1701815;84;21163;-47
2021/01/07 08:06:46;;;;;;;25.57;9.38;;;;;;;12.18;71.62;101257.73;1692959;84;21176;-47
2021/01/07 08:09:19;;;;;;;22.20;7.92;;;;;;;12.17;71.52;101252.98;1701035;84;21198;-47
2021/01/07 08:11:52;;;;;;;25.25;9.23;;;;;;;12.19;71.45;101252.94;1702448;84;22376;-47
2021/01/07 08:14:23;;;;;;;41.10;11.43;;;;;;;12.17;71.39;101258.20;1703601;84;21170;-47
2021/01/07 08:16:59;;;;;;;22.65;8.08;;;;;;;12.20;71.45;101250.73;1800389;78;22261;-47
2021/01/07 08:19:32;;;;;;;23.18;8.08;;;;;;;12.14;71.57;101253.47;1790072;80;21289;-47
2021/01/07 08:22:00;;;;;;;21.27;8.03;;;;;;;12.14;71.55;101256.94;1775429;80;21136;-47
2021/01/07 08:24:28;;;;;;;24.20;9.30;;;;;;;12.16;71.47;101251.69;1727474;83;21172;-47
2021/01/07 08:27:12;;;;;;;22.10;8.23;;;;;;;12.17;71.32;101252.11;1749832;81;21182;-47
2021/01/07 08:29:41;;;;;;;20.75;8.93;;;;;;;12.16;71.38;101255.16;1713455;83;21186;-47
2021/01/07 08:32:11;;;;;;;26.50;10.18;;;;;;;12.15;71.43;101246.94;1741432;81;21195;-47
2021/01/07 08:34:39;;;;;;;24.35;7.90;;;;;;;12.15;71.44;101247.37;1756125;81;21323;-47
2021/01/07 08:37:13;;;;;;;23.92;9.70;;;;;;;12.17;71.38;101249.07;1758247;81;21751;-47
2021/01/07 08:39:41;;;;;;;20.68;9.23;;;;;;;12.16;71.55;101247.77;1757265;81;21140;-47
2021/01/07 08:42:10;;;;;;;29.10;10.20;;;;;;;12.17;71.70;101232.55;1755013;81;21160;-47
2021/01/07 08:44:38;;;;;;;22.90;10.23;;;;;;;12.19;71.87;101227.72;1750778;81;21164;-47
2021/01/07 08:47:23;;;;;;;14.00;7.85;;;;;;;12.22;72.02;101225.47;1751575;81;21160;-47
2021/01/07 08:50:06;;;;;;;19.57;8.13;;;;;;;12.23;72.16;101219.38;1741491;81;21152;-47
2021/01/07 08:52:53;;;;;;;25.52;8.20;;;;;;;12.27;72.53;101213.20;1640339;87;21205;-47
2021/01/07 08:55:21;;;;;;;26.87;8.40;;;;;;;12.33;72.54;101231.33;1638924;87;21612;-47
2021/01/07 08:57:49;;;;;;;35.98;10.25;;;;;;;12.37;72.19;101230.37;1641058;87;21317;-47
2021/01/07 09:00:19;;;;;;;27.52;7.87;;;;;;;12.40;71.65;101225.10;1628884;87;21228;-47
2021/01/07 09:02:49;;;;;;;22.15;7.80;;;;;;;12.38;71.32;101220.36;1645394;87;21250;-47
2021/01/07 09:05:25;;;;;;;24.60;9.23;;;;;;;12.40;71.36;101215.97;1771610;79;23458;-47
2021/01/07 09:08:06;;;;;;;21.20;7.78;;;;;;;12.34;71.44;101216.10;1738247;82;21277;-47
2021/01/07 09:10:35;;;;;;;25.55;9.38;;;;;;;12.33;71.35;101210.45;1729092;82;22534;-47
2021/01/07 09:13:22;;;;;;;20.72;8.50;;;;;;;12.33;71.20;101207.84;1664586;85;21654;-47
2021/01/07 09:15:50;;;;;;;20.75;8.90;;;;;;;12.31;71.12;101208.33;1714210;83;21652;-47
2021/01/07 09:18:19;;;;;;;23.30;8.98;;;;;;;12.28;71.17;101198.80;1664899;85;21189;-47
2021/01/07 09:20:47;;;;;;;20.90;9.08;;;;;;;12.28;71.13;101182.31;1711929;83;21156;-47
2021/01/07 09:23:16;;;;;;;23.70;9.50;;;;;;;12.30;71.04;101182.27;1716569;83;21200;-47
2021/01/07 09:25:45;;;;;;;20.10;8.90;;;;;;;12.29;71.06;101186.63;1715912;83;21172;-47
2021/01/07 09:28:14;;;;;;;35.33;11.93;;;;;;;12.30;70.94;101189.66;1669302;85;21639;-47
2021/01/07 09:30:42;;;;;;;24.92;9.40;;;;;;;12.30;70.94;101172.70;1718648;83;21164;-47
2021/01/07 09:33:11;;;;;;;24.65;11.00;;;;;;;12.31;70.95;101180.06;1710558;83;21169;-47
2021/01/07 09:35:39;;;;;;;25.77;10.35;;;;;;;12.32;71.13;101160.91;1707683;83;21592;-47
2021/01/07 09:38:07;;;;;;;21.10;9.23;;;;;;;12.34;71.08;101166.52;1712829;83;21601;-47
2021/01/07 09:40:36;;;;;;;23.40;9.73;;;;;;;12.35;70.87;101153.87;1716527;83;21294;-47
2021/01/07 09:43:04;;;;;;;29.27;10.70;;;;;;;12.35;70.88;101146.48;1664730;85;21194;-47
2021/01/07 09:45:32;;;;;;;25.23;9.70;;;;;;;12.33;70.93;101136.09;1716948;83;21165;-47
2021/01/07 09:48:00;;;;;;;24.35;9.20;;;;;;;12.33;71.00;101122.17;1712372;83;21184;-47
2021/01/07 09:50:29;;;;;;;25.68;10.15;;;;;;;12.34;71.08;101109.11;1713895;83;21347;-47
2021/01/07 09:52:57;;;;;;;24.00;9.63;;;;;;;12.36;71.21;101106.02;1712777;83;21141;-47
2021/01/07 09:55:25;;;;;;;26.90;10.58;;;;;;;12.39;71.29;101107.67;1715409;83;21318;-46
2021/01/07 09:57:54;;;;;;;32.20;10.18;;;;;;;12.44;71.33;101100.17;1715935;83;21227;-47
2021/01/07 10:00:24;;;;;;;25.50;10.30;;;;;;;12.50;71.33;101090.88;1704577;83;21161;-47
2021/01/07 10:02:52;;;;;;;30.20;9.70;;;;;;;12.56;71.34;101082.91;1712035;83;21236;-47
2021/01/07 10:05:21;;;;;;;24.50;9.38;;;;;;;12.62;71.06;101082.75;1700248;84;21371;-47
2021/01/07 10:07:49;;;;;;;27.20;10.13;;;;;;;12.67;70.73;101074.37;1698897;84;21245;-47
2021/01/07 10:10:17;;;;;;;22.22;9.33;;;;;;;12.69;70.45;101063.44;1697275;84;21314;-47
2021/01/07 10:12:46;;;;;;;24.95;8.98;;;;;;;12.71;70.30;101053.81;1698169;83;21157;-47
2021/01/07 10:15:15;;;;;;;24.05;8.43;;;;;;;12.73;70.12;101053.33;1728485;82;21177;-47
2021/01/07 10:17:43;;;;;;;27.87;9.33;;;;;;;12.73;70.03;101044.19;1727487;82;21126;-47
2021/01/07 10:20:13;;;;;;;24.27;10.53;;;;;;;12.74;69.93;101043.71;1725297;82;21201;-47
2021/01/07 10:22:42;;;;;;;25.75;8.65;;;;;;;12.73;70.25;101042.88;1725008;82;21542;-47
2021/01/07 10:25:12;;;;;;;25.52;8.90;;;;;;;12.74;70.12;101040.66;1717661;82;21315;-47
2021/01/07 10:27:40;;;;;;;17.75;8.43;;;;;;;12.75;69.80;101024.11;1725571;82;21707;-47
2021/01/07 10:30:10;;;;;;;22.22;8.28;;;;;;;12.74;69.70;101021.52;1725854;82;21526;-47
2021/01/07 10:32:38;;;;;;;18.27;8.93;;;;;;;12.71;69.68;101017.70;1723876;82;21137;-47
2021/01/07 10:35:08;;;;;;;20.23;8.68;;;;;;;12.69;69.73;101011.22;1731873;82;21156;-47
2021/01/07 10:37:36;;;;;;;27.65;9.63;;;;;;;12.67;69.84;101013.02;1727542;82;21173;-47
2021/01/07 10:40:06;;;;;;;24.37;8.73;;;;;;;12.67;69.86;101014.77;1727356;82;21209;-47
2021/01/07 10:42:35;;;;;;;23.40;8.45;;;;;;;12.66;69.82;101008.67;1726798;82;21173;-47
2021/01/07 10:45:05;;;;;;;26.02;10.25;;;;;;;12.65;69.92;101004.33;1724486;82;21161;-47
2021/01/07 10:47:37;;;;;;;21.50;8.48;;;;;;;12.64;69.91;101007.86;1725874;82;21161;-47
2021/01/07 10:50:05;;;;;;;23.65;10.18;;;;;;;12.64;69.83;100997.41;1726701;82;21149;-48
2021/01/07 10:52:41;;;;;;;25.15;8.65;;;;;;;12.63;69.88;100993.08;1727900;82;21566;-47
2021/01/07 10:55:27;;;;;;;20.90;8.70;;;;;;;12.62;69.90;100993.98;1720015;82;21161;-47
2021/01/07 10:58:18;;;;;;;27.20;8.43;;;;;;;12.61;69.84;100983.13;1723946;82;21169;-48
2021/01/07 11:01:06;;;;;;;25.02;8.13;;;;;;;12.63;69.98;100983.11;1660177;86;21219;-47
2021/01/07 11:03:43;;;;;;;19.27;8.45;;;;;;;12.63;69.91;100977.41;1654055;85;21187;-46
2021/01/07 11:06:12;;;;;;;18.75;8.20;;;;;;;12.64;69.82;100965.22;1652240;86;21378;-46
2021/01/07 11:08:48;;;;;;;18.20;7.53;;;;;;;12.63;69.75;100957.83;1638717;87;21196;-46
2021/01/07 11:11:25;;;;;;;24.37;8.48;;;;;;;12.61;69.90;100955.71;1651815;86;21151;-47
2021/01/07 11:14:02;;;;;;;24.18;8.00;;;;;;;12.62;70.12;100958.75;1637558;87;21186;-47
2021/01/07 11:16:44;;;;;;;23.92;9.15;;;;;;;12.68;70.42;100948.14;1766423;79;23115;-47
2021/01/07 11:19:15;;;;;;;24.70;8.18;;;;;;;12.65;70.44;100950.81;1740347;81;21557;-47
2021/01/07 11:21:55;;;;;;;23.70;9.25;;;;;;;12.68;70.54;100950.75;1690522;84;21163;-47
2021/01/07 11:24:29;;;;;;;22.48;8.98;;;;;;;12.80;70.81;100938.66;1809530;79;23374;-46
2021/01/07 11:26:58;;;;;;;31.57;8.65;;;;;;;12.82;70.74;100938.16;1792671;80;21156;-48
2021/01/07 11:29:26;;;;;;;22.00;9.18;;;;;;;12.89;70.59;100929.27;1785640;80;21153;-47